Time;durP1;ratioP1;P1;durP2;ratioP2;P2;SDS_P1;SDS_P2;PMS_P1;PMS_P2;Temp;Humidity;BMP_temperature;BMP_pressure;BME280_temperature;BME280_humidity;BME280_pressure;Samples;Min_cycle;Max_cycle;Signal;HPM_P1;HPM_P2
2022/07/11 00:08:20;;;;;;;3.30;1.40;;;;;;;8.85;83.73;99516.02;430854;1278;71579;-55
2022/07/11 00:18:26;;;;;;;2.40;1.80;;;;;;;8.83;84.18;99513.31;431235;1279;61764;-56
2022/07/11 00:28:32;;;;;;;4.30;2.10;;;;;;;8.98;84.42;99507.91;431525;1278;61466;-56
2022/07/11 00:38:37;;;;;;;3.30;1.80;;;;;;;9.20;84.61;99503.84;431168;1278;73683;-57
2022/07/11 00:48:43;;;;;;;5.20;2.40;;;;;;;9.44;85.09;99505.20;430424;1279;68498;-56
2022/07/11 00:58:50;;;;;;;2.10;1.90;;;;;;;9.75;85.58;99508.23;431230;1277;71751;-55
2022/07/11 01:08:56;;;;;;;2.00;1.80;;;;;;;10.00;85.19;99501.96;435608;1278;61472;-57
2022/07/11 01:19:02;;;;;;;5.50;2.40;;;;;;;10.10;84.86;99508.70;430832;1279;61420;-55
2022/07/11 01:29:10;;;;;;;5.40;2.40;;;;;;;10.11;84.79;99507.45;431501;1278;73537;-56
2022/07/11 01:39:15;;;;;;;4.60;2.20;;;;;;;10.02;84.56;99493.64;435844;1278;69713;-56
2022/07/11 01:49:21;;;;;;;2.90;1.80;;;;;;;10.01;84.90;99483.85;431275;1278;72006;-56
2022/07/11 01:59:27;;;;;;;3.70;1.60;;;;;;;10.07;84.74;99480.02;431480;1279;61798;-56
2022/07/11 02:09:33;;;;;;;4.20;1.70;;;;;;;10.11;84.83;99469.09;431238;1279;61552;-54
2022/07/11 02:19:39;;;;;;;5.70;2.60;;;;;;;10.07;84.56;99469.99;431092;1279;74722;-57
2022/07/11 02:29:45;;;;;;;3.90;2.80;;;;;;;10.08;84.63;99469.91;430829;1278;68375;-55
2022/07/11 02:39:51;;;;;;;3.80;3.30;;;;;;;10.01;84.59;99471.14;430879;1278;71574;-55
2022/07/11 02:49:57;;;;;;;4.50;4.00;;;;;;;9.90;84.84;99473.19;430860;1278;61398;-58
2022/07/11 03:00:04;;;;;;;7.30;3.40;;;;;;;9.75;84.86;99467.83;431653;1279;62015;-55
2022/07/11 03:10:11;;;;;;;3.80;3.40;;;;;;;9.72;85.31;99471.20;431941;1279;73974;-56
2022/07/11 03:20:17;;;;;;;8.50;3.90;;;;;;;9.96;85.43;99472.30;430933;1278;69805;-56
2022/07/11 03:30:23;;;;;;;4.60;3.10;;;;;;;10.26;84.77;99471.96;431327;1278;71650;-54
2022/07/11 03:40:29;;;;;;;5.20;4.80;;;;;;;10.27;84.30;99473.34;431184;1279;61390;-56
2022/07/11 03:50:36;;;;;;;4.10;3.70;;;;;;;10.36;84.19;99478.16;430880;1279;61478;-54
2022/07/11 04:00:42;;;;;;;4.30;3.20;;;;;;;10.63;83.75;99483.96;430665;1279;75371;-55
2022/07/11 04:10:48;;;;;;;9.40;2.70;;;;;;;12.96;84.77;99484.41;437224;1278;68117;-56
2022/07/11 04:20:56;;;;;;;4.10;2.30;;;;;;;19.98;76.13;99475.19;430463;1279;73146;-56
2022/07/11 04:31:02;;;;;;;4.50;1.50;;;;;;;24.43;67.57;99468.66;430787;1279;61560;-56
2022/07/11 04:41:08;;;;;;;5.50;1.70;;;;;;;26.96;58.08;99468.70;430697;1278;61784;-56
2022/07/11 04:51:14;;;;;;;4.70;1.90;;;;;;;25.50;54.77;99465.71;430759;1279;74945;-56
2022/07/11 05:01:20;;;;;;;4.30;1.50;;;;;;;28.87;53.23;99466.95;430957;1279;68472;-57
2022/07/11 05:11:26;;;;;;;5.70;1.80;;;;;;;34.38;45.46;99463.33;430888;1278;71684;-58
2022/07/11 05:21:34;;;;;;;5.80;1.30;;;;;;;37.95;38.81;99452.58;430558;1279;61377;-57
2022/07/11 05:31:40;;;;;;;5.00;1.20;;;;;;;39.01;34.82;99452.36;431792;1279;61396;-57
2022/07/11 05:41:46;;;;;;;5.00;1.10;;;;;;;35.24;32.57;99466.88;431853;1279;66763;-58
2022/07/11 05:51:52;;;;;;;4.20;0.90;;;;;;;25.65;37.79;99470.71;432001;1279;68357;-58
2022/07/11 06:01:58;;;;;;;2.10;1.30;;;;;;;21.60;43.65;99480.02;432255;1279;71419;-57
2022/07/11 06:12:06;;;;;;;3.20;1.20;;;;;;;20.92;45.84;99483.52;431756;1278;61411;-55
2022/07/11 06:22:12;;;;;;;6.50;2.20;;;;;;;23.29;44.59;99480.15;432037;1279;61348;-58
2022/07/11 06:32:17;;;;;;;;;;;;;;;31.73;38.52;99474.60;432067;1281;74555;-57
2022/07/11 06:42:23;;;;;;;2.40;0.70;;;;;;;37.92;32.40;99462.14;431161;1281;69251;-57
2022/07/11 06:52:30;;;;;;;3.50;1.00;;;;;;;33.97;30.23;99461.81;430887;1281;62901;-58
2022/07/11 07:02:36;;;;;;;4.90;0.70;;;;;;;26.39;35.31;99461.48;430919;1281;61832;-57
2022/07/11 07:12:42;;;;;;;7.60;1.20;;;;;;;23.39;39.14;99475.70;431406;1279;61327;-57
2022/07/11 07:22:48;;;;;;;6.50;1.50;;;;;;;23.64;40.77;99472.70;431367;1279;73649;-56
2022/07/11 07:32:54;;;;;;;3.80;1.20;;;;;;;22.84;41.36;99477.29;431006;1281;67831;-56
2022/07/11 07:43:01;;;;;;;3.10;0.80;;;;;;;22.01;42.95;99466.79;431337;1279;70913;-57
2022/07/11 07:53:07;;;;;;;5.20;1.20;;;;;;;20.72;44.41;99465.05;430999;1281;61406;-57
2022/07/11 08:03:13;;;;;;;1.80;0.90;;;;;;;18.87;46.86;99476.58;431871;1279;61424;-58
2022/07/11 08:13:19;;;;;;;5.80;0.90;;;;;;;17.76;49.71;99483.74;432041;1279;73684;-58
2022/07/11 08:23:25;;;;;;;2.90;1.10;;;;;;;17.44;51.64;99492.34;431697;1279;68557;-58
2022/07/11 08:33:31;;;;;;;2.90;1.40;;;;;;;17.15;51.98;99487.89;431519;1278;71586;-56
2022/07/11 08:43:37;;;;;;;1.30;0.80;;;;;;;17.06;52.95;99483.27;431639;1278;61411;-58
2022/07/11 08:53:44;;;;;;;1.30;0.70;;;;;;;16.98;52.29;99483.29;431508;1277;61417;-58
2022/07/11 09:03:52;;;;;;;1.90;0.70;;;;;;;16.37;52.46;99490.70;431919;1278;74626;-60
2022/07/11 09:13:58;;;;;;;3.10;0.60;;;;;;;16.08;53.39;99489.73;431962;1277;68183;-58
2022/07/11 09:34:30;;;;;;;6.10;0.50;;;;;;;16.73;53.28;99490.46;431668;1279;61405;-56
2022/07/11 09:44:36;;;;;;;4.00;0.50;;;;;;;18.04;51.73;99480.09;431380;1279;61500;-59
2022/07/11 09:55:00;;;;;;;2.80;0.50;;;;;;;18.60;50.11;99474.82;432065;1279;73775;-57
2022/07/11 10:05:09;;;;;;;3.10;0.40;;;;;;;18.81;48.09;99472.38;431324;1280;69684;-58
2022/07/11 10:15:18;;;;;;;3.90;0.50;;;;;;;19.11;47.03;99469.23;431604;1279;72027;-55
2022/07/11 10:25:33;;;;;;;0.80;0.30;;;;;;;19.73;45.97;99473.15;431408;1279;61420;-60
2022/07/11 10:35:42;;;;;;;1.60;0.20;;;;;;;19.51;45.87;99465.14;431804;1279;61400;-58
2022/07/11 10:45:59;;;;;;;0.30;0.30;;;;;;;19.09;45.96;99472.44;431547;1281;73772;-57
2022/07/11 10:56:18;;;;;;;1.30;1.00;;;;;;;19.89;45.83;99469.16;431733;1281;68365;-59
2022/07/11 11:17:38;;;;;;;0.30;0.20;;;;;;;20.40;46.14;99473.83;420690;1309;600602;-56
2022/07/11 11:27:59;;;;;;;;;;;;;;;20.94;44.75;99462.52;431579;1277;247892;-58
2022/07/11 11:38:06;;;;;;;0.40;0.10;;;;;;;20.81;44.10;99463.41;431999;1277;59473;-59
2022/07/11 11:48:12;;;;;;;0.80;0.10;;;;;;;20.79;43.67;99467.88;431928;1277;72178;-58
2022/07/11 11:58:18;;;;;;;1.20;0.30;;;;;;;19.42;44.98;99486.45;434368;1271;68354;-59
2022/07/11 12:08:30;;;;;;;1.00;0.40;;;;;;;17.90;49.78;99507.41;434293;1271;72742;-58
2022/07/11 12:18:40;;;;;;;0.90;0.50;;;;;;;16.16;54.95;99530.90;434421;1271;59437;-59
2022/07/11 12:29:06;;;;;;;1.80;0.40;;;;;;;15.89;57.13;99530.09;434425;1271;59393;-60
2022/07/11 12:39:25;;;;;;;3.20;1.30;;;;;;;17.22;56.55;99513.95;434265;1270;71293;-57
2022/07/11 12:49:33;;;;;;;0.30;0.30;;;;;;;18.11;54.98;99509.38;434060;1271;68223;-58
2022/07/11 12:59:41;;;;;;;1.40;0.50;;;;;;;18.02;54.59;99516.41;435054;1270;72549;-62
2022/07/11 13:09:47;;;;;;;1.60;0.70;;;;;;;18.04;54.00;99520.79;434740;1269;59793;-59
2022/07/11 13:19:56;;;;;;;1.50;0.60;;;;;;;18.05;52.65;99525.47;434796;1271;59803;-58
2022/07/11 13:30:10;;;;;;;3.30;0.40;;;;;;;18.20;51.08;99520.77;434549;1270;71906;-58
2022/07/11 13:40:18;;;;;;;0.20;0.20;;;;;;;18.48;50.54;99519.61;434407;1271;67412;-59
2022/07/11 13:50:23;;;;;;;;;;;;;;;18.36;50.69;99516.20;434513;1271;71906;-60
2022/07/11 14:00:29;;;;;;;0.40;0.40;;;;;;;18.71;51.10;99508.52;434220;1271;60311;-57
2022/07/11 14:10:36;;;;;;;7.20;0.70;;;;;;;18.66;50.22;99503.26;438134;1270;59780;-57
2022/07/11 14:20:42;;;;;;;4.70;0.80;;;;;;;18.10;51.76;99519.04;434842;1271;71980;-58
2022/07/11 14:30:49;;;;;;;2.90;0.40;;;;;;;17.59;54.13;99561.32;433531;1271;68525;-56
2022/07/11 14:40:55;;;;;;;1.10;0.30;;;;;;;16.47;56.87;99602.00;433242;1270;72984;-56
2022/07/11 14:51:01;;;;;;;2.10;0.30;;;;;;;15.08;58.74;99580.25;433260;1270;59807;-57
2022/07/11 15:01:08;;;;;;;0.50;0.50;;;;;;;14.62;60.96;99571.09;433294;1270;59926;-56
2022/07/11 15:21:38;;;;;;;0.70;0.30;;;;;;;14.96;62.53;99576.86;434069;1271;67896;-58
2022/07/11 15:31:43;;;;;;;1.30;0.50;;;;;;;14.97;63.77;99567.77;434360;1271;71437;-56
2022/07/11 15:41:49;;;;;;;2.20;0.50;;;;;;;15.18;64.43;99562.18;433393;1271;59836;-57
2022/07/11 15:51:55;;;;;;;1.00;0.30;;;;;;;15.61;64.99;99550.65;433408;1271;59852;-56
2022/07/11 16:02:01;;;;;;;2.70;0.70;;;;;;;16.10;65.04;99554.52;433501;1270;72223;-57
2022/07/11 16:12:08;;;;;;;0.40;0.40;;;;;;;16.65;64.41;99575.20;434733;1270;68336;-56
2022/07/11 16:22:14;;;;;;;0.30;0.20;;;;;;;17.15;62.93;99584.84;433581;1271;73944;-58
2022/07/11 16:32:20;;;;;;;0.30;0.10;;;;;;;17.73;60.37;99595.07;439727;1269;60372;-56
2022/07/11 16:52:50;;;;;;;0.20;0.10;;;;;;;18.27;58.15;99598.49;433291;1269;71773;-57
2022/07/11 17:02:58;;;;;;;1.30;0.40;;;;;;;17.98;58.26;99601.92;441808;1269;68948;-56
2022/07/11 17:13:04;;;;;;;2.80;0.70;;;;;;;17.96;58.32;99604.11;433569;1270;73460;-55
2022/07/11 17:23:10;;;;;;;0.30;0.30;;;;;;;17.70;58.52;99601.20;434002;1270;59761;-55
2022/07/11 17:33:16;;;;;;;4.80;0.40;;;;;;;17.26;58.77;99608.63;433777;1271;59722;-55
2022/07/11 17:43:22;;;;;;;2.30;0.90;;;;;;;16.65;59.52;99618.78;436019;1270;73761;-58
2022/07/11 17:53:28;;;;;;;2.90;0.80;;;;;;;16.29;59.69;99623.17;433398;1270;68412;-54
2022/07/11 18:03:34;;;;;;;1.60;0.40;;;;;;;16.23;60.65;99625.46;433659;1271;71558;-57
2022/07/11 18:13:40;;;;;;;3.80;0.50;;;;;;;16.24;61.28;99631.19;433796;1270;60078;-57
2022/07/11 18:23:47;;;;;;;2.90;0.60;;;;;;;16.12;61.93;99638.41;433626;1271;59945;-57
2022/07/11 18:33:55;;;;;;;4.50;0.70;;;;;;;15.71;62.68;99649.42;433599;1271;72001;-57
2022/07/11 18:44:02;;;;;;;2.80;0.90;;;;;;;15.25;63.57;99655.02;450346;1269;68481;-58
2022/07/11 18:54:08;;;;;;;2.70;0.80;;;;;;;14.79;64.71;99656.25;450380;1269;71474;-58
2022/07/11 19:04:14;;;;;;;2.30;0.80;;;;;;;14.40;65.91;99660.70;450260;1269;58942;-57
2022/07/11 19:14:20;;;;;;;6.00;1.30;;;;;;;14.06;67.22;99655.26;450309;1268;60687;-58
2022/07/11 19:24:26;;;;;;;1.20;0.70;;;;;;;13.71;68.29;99661.40;442292;1269;73492;-57
2022/07/11 19:34:32;;;;;;;4.70;1.30;;;;;;;13.39;69.29;99663.23;434297;1271;68225;-59
2022/07/11 19:44:39;;;;;;;5.10;1.30;;;;;;;13.09;70.34;99665.24;450137;1269;71490;-57
2022/07/11 20:05:09;;;;;;;1.50;1.10;;;;;;;12.55;72.14;99666.67;433817;1269;59865;-56
2022/07/11 20:15:16;;;;;;;3.30;1.20;;;;;;;12.26;72.90;99660.23;434588;1270;72012;-56
2022/07/11 20:25:22;;;;;;;10.10;2.10;;;;;;;12.02;73.68;99664.70;434613;1271;69596;-56
2022/07/11 20:35:28;;;;;;;4.00;1.40;;;;;;;11.80;74.35;99672.45;434736;1271;71647;-57
2022/07/11 20:45:34;;;;;;;2.30;1.30;;;;;;;11.63;75.04;99678.19;435097;1270;59748;-57
2022/07/11 20:55:41;;;;;;;3.40;1.90;;;;;;;11.44;75.61;99680.83;434996;1271;59783;-62
2022/07/11 21:05:47;;;;;;;5.60;1.80;;;;;;;11.32;76.11;99687.75;435137;1271;71868;-57
2022/07/11 21:15:52;;;;;;;2.40;2.20;;;;;;;11.19;76.50;99694.72;434691;1271;68742;-58
2022/07/11 21:25:59;;;;;;;3.00;2.50;;;;;;;11.02;77.17;99708.23;434724;1269;73612;-55
2022/07/11 21:36:07;;;;;;;5.50;2.50;;;;;;;10.90;77.63;99707.98;433482;1269;60797;-54
2022/07/11 21:46:13;;;;;;;2.70;2.30;;;;;;;10.76;78.00;99708.47;448800;1270;59678;-57
2022/07/11 21:56:19;;;;;;;2.50;1.80;;;;;;;10.72;78.35;99706.62;433575;1271;71873;-56
2022/07/11 22:06:25;;;;;;;2.30;2.00;;;;;;;10.73;78.68;99708.14;433712;1269;68306;-52
2022/07/11 22:16:31;;;;;;;1.30;1.20;;;;;;;10.87;79.38;99710.55;433056;1271;71679;-56
2022/07/11 22:26:37;;;;;;;5.70;1.10;;;;;;;11.21;79.66;99710.55;434139;1270;59777;-56
2022/07/11 22:36:42;;;;;;;3.10;0.90;;;;;;;11.58;79.63;99711.27;433646;1270;60124;-58
2022/07/11 22:46:49;;;;;;;3.70;1.50;;;;;;;11.93;78.87;99712.29;433735;1271;72225;-58
2022/07/11 22:57:14;;;;;;;1.20;1.10;;;;;;;12.10;78.52;99715.25;434086;1270;68664;-55
2022/07/11 23:07:20;;;;;;;3.50;1.40;;;;;;;12.11;78.45;99717.08;433681;1270;71832;-54
2022/07/11 23:17:26;;;;;;;2.40;1.00;;;;;;;12.19;78.67;99721.98;435128;1268;59799;-63
2022/07/11 23:27:32;;;;;;;1.60;1.20;;;;;;;12.36;78.60;99723.33;434852;1267;330177;-55
2022/07/11 23:37:38;;;;;;;1.60;1.20;;;;;;;12.42;78.72;99725.69;434851;1268;73412;-52
2022/07/11 23:47:44;;;;;;;2.20;1.20;;;;;;;12.45;78.94;99725.31;434454;1268;67556;-58
2022/07/11 23:57:49;;;;;;;2.50;1.60;;;;;;;12.49;78.74;99721.52;434151;1266;70863;-54
